sensor_id;sensor_type;location;lat;lon;timestamp;pressure;altitude;pressure_sealevel;temperature;humidity
20368;BME280;10343;52.402;9.796;2022-09-28T00:00:59;99130.13;;;9.11;100.00
20368;BME280;10343;52.402;9.796;2022-09-28T00:03:32;99130.34;;;9.07;100.00
20368;BME280;10343;52.402;9.796;2022-09-28T00:06:01;99127.75;;;9.05;100.00
20368;BME280;10343;52.402;9.796;2022-09-28T00:08:29;99124.38;;;9.01;100.00
20368;BME280;10343;52.402;9.796;2022-09-28T00:10:57;99134.16;;;8.99;100.00
20368;BME280;10343;52.402;9.796;2022-09-28T00:13:25;99124.63;;;8.95;100.00
20368;BME280;10343;52.402;9.796;2022-09-28T00:16:03;99122.31;;;8.88;100.00
20368;BME280;10343;52.402;9.796;2022-09-28T00:18:31;99114.56;;;8.83;100.00
20368;BME280;10343;52.402;9.796;2022-09-28T00:21:01;99122.44;;;8.84;100.00
20368;BME280;10343;52.402;9.796;2022-09-28T00:23:30;99121.69;;;8.81;100.00
20368;BME280;10343;52.402;9.796;2022-09-28T00:26:02;99126.91;;;8.82;100.00
20368;BME280;10343;52.402;9.796;2022-09-28T00:28:30;99119.25;;;8.76;100.00
20368;BME280;10343;52.402;9.796;2022-09-28T00:30:58;99118.38;;;8.76;100.00
20368;BME280;10343;52.402;9.796;2022-09-28T00:33:28;99114.94;;;8.74;100.00
20368;BME280;10343;52.402;9.796;2022-09-28T00:35:56;99107.94;;;8.73;100.00
20368;BME280;10343;52.402;9.796;2022-09-28T00:38:28;99115.06;;;8.71;100.00
20368;BME280;10343;52.402;9.796;2022-09-28T00:40:56;99106.34;;;8.69;100.00
20368;BME280;10343;52.402;9.796;2022-09-28T00:43:25;99100.31;;;8.65;100.00
20368;BME280;10343;52.402;9.796;2022-09-28T00:45:56;99095.09;;;8.63;100.00
20368;BME280;10343;52.402;9.796;2022-09-28T00:48:28;99094.31;;;8.61;100.00
20368;BME280;10343;52.402;9.796;2022-09-28T00:51:01;99089.16;;;8.58;100.00
20368;BME280;10343;52.402;9.796;2022-09-28T00:53:33;99091.97;;;8.54;100.00
20368;BME280;10343;52.402;9.796;2022-09-28T00:56:05;99087.63;;;8.53;100.00
20368;BME280;10343;52.402;9.796;2022-09-28T00:58:37;99086.06;;;8.47;100.00
20368;BME280;10343;52.402;9.796;2022-09-28T01:01:07;99078.19;;;8.45;100.00
20368;BME280;10343;52.402;9.796;2022-09-28T01:03:37;99075.59;;;8.44;100.00
20368;BME280;10343;52.402;9.796;2022-09-28T01:06:07;99069.19;;;8.27;100.00
20368;BME280;10343;52.402;9.796;2022-09-28T01:08:36;99065.38;;;8.34;100.00
20368;BME280;10343;52.402;9.796;2022-09-28T01:11:06;99063.00;;;8.28;100.00
20368;BME280;10343;52.402;9.796;2022-09-28T01:13:34;99064.66;;;8.31;100.00
20368;BME280;10343;52.402;9.796;2022-09-28T01:16:07;99067.13;;;8.36;100.00
20368;BME280;10343;52.402;9.796;2022-09-28T01:18:48;99066.94;;;8.40;100.00
20368;BME280;10343;52.402;9.796;2022-09-28T01:21:20;99071.94;;;8.48;100.00
20368;BME280;10343;52.402;9.796;2022-09-28T01:24:07;99056.50;;;8.59;100.00
20368;BME280;10343;52.402;9.796;2022-09-28T01:26:53;99051.50;;;8.53;100.00
20368;BME280;10343;52.402;9.796;2022-09-28T01:29:32;99051.91;;;8.64;100.00
20368;BME280;10343;52.402;9.796;2022-09-28T01:32:10;99040.16;;;8.72;100.00
20368;BME280;10343;52.402;9.796;2022-09-28T01:34:44;99039.91;;;8.78;100.00
20368;BME280;10343;52.402;9.796;2022-09-28T01:37:15;99050.13;;;8.86;100.00
20368;BME280;10343;52.402;9.796;2022-09-28T01:39:47;99043.75;;;8.91;100.00
20368;BME280;10343;52.402;9.796;2022-09-28T01:42:22;99038.34;;;8.94;100.00
20368;BME280;10343;52.402;9.796;2022-09-28T01:44:53;99038.34;;;8.94;100.00
20368;BME280;10343;52.402;9.796;2022-09-28T01:47:23;99036.47;;;8.96;100.00
20368;BME280;10343;52.402;9.796;2022-09-28T01:49:57;99032.13;;;8.95;100.00
20368;BME280;10343;52.402;9.796;2022-09-28T01:52:30;99023.16;;;8.99;100.00
20368;BME280;10343;52.402;9.796;2022-09-28T01:55:05;99027.47;;;9.00;100.00
20368;BME280;10343;52.402;9.796;2022-09-28T01:57:39;99013.22;;;9.05;100.00
20368;BME280;10343;52.402;9.796;2022-09-28T02:00:12;99016.66;;;9.07;100.00
20368;BME280;10343;52.402;9.796;2022-09-28T02:02:46;99016.81;;;9.04;100.00
20368;BME280;10343;52.402;9.796;2022-09-28T02:05:23;99016.72;;;9.05;100.00
20368;BME280;10343;52.402;9.796;2022-09-28T02:08:00;99011.09;;;9.13;100.00
20368;BME280;10343;52.402;9.796;2022-09-28T02:10:32;99012.69;;;9.17;100.00
20368;BME280;10343;52.402;9.796;2022-09-28T02:13:08;99014.13;;;9.24;100.00
20368;BME280;10343;52.402;9.796;2022-09-28T02:15:42;99014.00;;;9.27;100.00
20368;BME280;10343;52.402;9.796;2022-09-28T02:18:12;99003.53;;;9.24;100.00
20368;BME280;10343;52.402;9.796;2022-09-28T02:20:45;99003.53;;;9.24;100.00
20368;BME280;10343;52.402;9.796;2022-09-28T02:23:16;99002.63;;;9.25;100.00
20368;BME280;10343;52.402;9.796;2022-09-28T02:25:48;98998.00;;;9.30;100.00
20368;BME280;10343;52.402;9.796;2022-09-28T02:28:20;98996.13;;;9.32;100.00
20368;BME280;10343;52.402;9.796;2022-09-28T02:30:49;99001.28;;;9.35;100.00
20368;BME280;10343;52.402;9.796;2022-09-28T02:33:20;98991.56;;;9.36;100.00
20368;BME280;10343;52.402;9.796;2022-09-28T02:35:50;98991.72;;;9.33;100.00
20368;BME280;10343;52.402;9.796;2022-09-28T02:38:20;98988.84;;;9.38;100.00
20368;BME280;10343;52.402;9.796;2022-09-28T02:41:02;98992.38;;;9.38;100.00
20368;BME280;10343;52.402;9.796;2022-09-28T02:43:39;98990.56;;;9.39;100.00
20368;BME280;10343;52.402;9.796;2022-09-28T02:46:21;98983.41;;;9.41;100.00
20368;BME280;10343;52.402;9.796;2022-09-28T02:49:14;98988.25;;;9.31;100.00
20368;BME280;10343;52.402;9.796;2022-09-28T02:52:18;98989.00;;;9.34;100.00
20368;BME280;10343;52.402;9.796;2022-09-28T02:55:09;98988.00;;;9.37;100.00
20368;BME280;10343;52.402;9.796;2022-09-28T02:57:48;98982.28;;;9.27;100.00
20368;BME280;10343;52.402;9.796;2022-09-28T03:00:24;98985.69;;;9.29;100.00
20368;BME280;10343;52.402;9.796;2022-09-28T03:02:59;98979.41;;;9.32;100.00
20368;BME280;10343;52.402;9.796;2022-09-28T03:05:36;98978.25;;;9.38;100.00
20368;BME280;10343;52.402;9.796;2022-09-28T03:08:10;98973.13;;;9.34;100.00
20368;BME280;10343;52.402;9.796;2022-09-28T03:10:44;98972.31;;;9.32;100.00
20368;BME280;10343;52.402;9.796;2022-09-28T03:13:14;98967.97;;;9.31;100.00
20368;BME280;10343;52.402;9.796;2022-09-28T03:15:44;98980.53;;;9.26;100.00
20368;BME280;10343;52.402;9.796;2022-09-28T03:18:16;98969.69;;;9.32;100.00
20368;BME280;10343;52.402;9.796;2022-09-28T03:20:44;98975.09;;;9.29;100.00
20368;BME280;10343;52.402;9.796;2022-09-28T03:23:12;98971.63;;;9.29;100.00
20368;BME280;10343;52.402;9.796;2022-09-28T03:25:55;98971.53;;;9.30;100.00
20368;BME280;10343;52.402;9.796;2022-09-28T03:28:23;98969.81;;;9.29;100.00
20368;BME280;10343;52.402;9.796;2022-09-28T03:30:52;98966.66;;;9.21;100.00
20368;BME280;10343;52.402;9.796;2022-09-28T03:33:21;98977.69;;;9.12;100.00
20368;BME280;10343;52.402;9.796;2022-09-28T03:35:49;98969.66;;;9.13;100.00
20368;BME280;10343;52.402;9.796;2022-09-28T03:38:18;98967.09;;;9.12;100.00
20368;BME280;10343;52.402;9.796;2022-09-28T03:40:52;98961.66;;;9.15;100.00
20368;BME280;10343;52.402;9.796;2022-09-28T03:43:20;98961.53;;;9.18;100.00
20368;BME280;10343;52.402;9.796;2022-09-28T03:45:55;98957.81;;;9.22;100.00
20368;BME280;10343;52.402;9.796;2022-09-28T03:48:25;98956.47;;;9.13;100.00
20368;BME280;10343;52.402;9.796;2022-09-28T03:51:00;98957.38;;;9.12;100.00
20368;BME280;10343;52.402;9.796;2022-09-28T03:53:28;98954.25;;;9.23;100.00
20368;BME280;10343;52.402;9.796;2022-09-28T03:56:01;98953.25;;;9.26;100.00
20368;BME280;10343;52.402;9.796;2022-09-28T03:58:31;98955.81;;;9.27;100.00
20368;BME280;10343;52.402;9.796;2022-09-28T04:01:06;98951.69;;;9.22;100.00
20368;BME280;10343;52.402;9.796;2022-09-28T04:03:41;98950.47;;;9.29;100.00
20368;BME280;10343;52.402;9.796;2022-09-28T04:06:10;98938.91;;;9.31;100.00
20368;BME280;10343;52.402;9.796;2022-09-28T04:08:38;98951.38;;;9.28;100.00
20368;BME280;10343;52.402;9.796;2022-09-28T04:11:07;98949.81;;;9.24;100.00
20368;BME280;10343;52.402;9.796;2022-09-28T04:13:35;98943.84;;;9.18;100.00
20368;BME280;10343;52.402;9.796;2022-09-28T04:16:08;98948.00;;;9.24;100.00
20368;BME280;10343;52.402;9.796;2022-09-28T04:18:37;98939.31;;;9.22;100.00
20368;BME280;10343;52.402;9.796;2022-09-28T04:21:24;98941.66;;;9.28;100.00
20368;BME280;10343;52.402;9.796;2022-09-28T04:24:01;98938.25;;;9.26;100.00
20368;BME280;10343;52.402;9.796;2022-09-28T04:26:29;98934.59;;;9.29;100.00
20368;BME280;10343;52.402;9.796;2022-09-28T04:28:57;98936.25;;;9.31;100.00
20368;BME280;10343;52.402;9.796;2022-09-28T04:31:49;98927.38;;;9.32;100.00
20368;BME280;10343;52.402;9.796;2022-09-28T04:34:21;98932.47;;;9.37;100.00
20368;BME280;10343;52.402;9.796;2022-09-28T04:36:49;98926.19;;;9.40;100.00
20368;BME280;10343;52.402;9.796;2022-09-28T04:39:17;98932.38;;;9.39;100.00
20368;BME280;10343;52.402;9.796;2022-09-28T04:41:49;98933.16;;;9.41;100.00
20368;BME280;10343;52.402;9.796;2022-09-28T04:44:17;98933.22;;;9.39;100.00
20368;BME280;10343;52.402;9.796;2022-09-28T04:46:47;98933.16;;;9.41;100.00
20368;BME280;10343;52.402;9.796;2022-09-28T04:49:27;98931.38;;;9.41;100.00
20368;BME280;10343;52.402;9.796;2022-09-28T04:52:00;98934.09;;;9.40;100.00
20368;BME280;10343;52.402;9.796;2022-09-28T04:54:28;98926.94;;;9.42;100.00
20368;BME280;10343;52.402;9.796;2022-09-28T04:56:56;98929.44;;;9.45;100.00
20368;BME280;10343;52.402;9.796;2022-09-28T04:59:24;98926.94;;;9.42;100.00
20368;BME280;10343;52.402;9.796;2022-09-28T05:01:53;98925.53;;;9.34;100.00
20368;BME280;10343;52.402;9.796;2022-09-28T05:04:50;98925.53;;;9.34;100.00
20368;BME280;10343;52.402;9.796;2022-09-28T05:07:45;98928.31;;;9.31;100.00
20368;BME280;10343;52.402;9.796;2022-09-28T05:10:12;98927.94;;;9.39;100.00
20368;BME280;10343;52.402;9.796;2022-09-28T05:12:40;98921.88;;;9.37;100.00
20368;BME280;10343;52.402;9.796;2022-09-28T05:15:10;98923.53;;;9.40;100.00
20368;BME280;10343;52.402;9.796;2022-09-28T05:17:39;98923.66;;;9.37;100.00
20368;BME280;10343;52.402;9.796;2022-09-28T05:20:19;98927.09;;;9.39;100.00
20368;BME280;10343;52.402;9.796;2022-09-28T05:22:47;98921.81;;;9.39;100.00
20368;BME280;10343;52.402;9.796;2022-09-28T05:25:16;98921.81;;;9.39;100.00
20368;BME280;10343;52.402;9.796;2022-09-28T05:28:21;98925.94;;;9.44;100.00
20368;BME280;10343;52.402;9.796;2022-09-28T05:31:10;98919.00;;;9.42;100.00
20368;BME280;10343;52.402;9.796;2022-09-28T05:33:58;98923.22;;;9.46;100.00
20368;BME280;10343;52.402;9.796;2022-09-28T05:36:26;98920.09;;;9.38;100.00
20368;BME280;10343;52.402;9.796;2022-09-28T05:38:56;98918.25;;;9.40;100.00
20368;BME280;10343;52.402;9.796;2022-09-28T05:41:24;98918.94;;;9.43;100.00
20368;BME280;10343;52.402;9.796;2022-09-28T05:43:52;98918.00;;;9.44;100.00
20368;BME280;10343;52.402;9.796;2022-09-28T05:46:21;98919.00;;;9.42;100.00
20368;BME280;10343;52.402;9.796;2022-09-28T05:48:50;98910.94;;;9.45;100.00
20368;BME280;10343;52.402;9.796;2022-09-28T05:51:19;98915.53;;;9.41;100.00
20368;BME280;10343;52.402;9.796;2022-09-28T05:53:53;98914.53;;;9.44;100.00
20368;BME280;10343;52.402;9.796;2022-09-28T05:56:21;98918.25;;;9.40;100.00
20368;BME280;10343;52.402;9.796;2022-09-28T05:58:51;98914.78;;;9.38;100.00
20368;BME280;10343;52.402;9.796;2022-09-28T06:01:21;98916.59;;;9.37;100.00
20368;BME280;10343;52.402;9.796;2022-09-28T06:03:50;98918.09;;;9.43;100.00
20368;BME280;10343;52.402;9.796;2022-09-28T06:06:23;98920.50;;;9.47;100.00
20368;BME280;10343;52.402;9.796;2022-09-28T06:08:51;98924.03;;;9.48;100.00
20368;BME280;10343;52.402;9.796;2022-09-28T06:11:51;98916.94;;;9.48;100.00
20368;BME280;10343;52.402;9.796;2022-09-28T06:14:28;98923.22;;;9.46;100.00
20368;BME280;10343;52.402;9.796;2022-09-28T06:16:56;98926.78;;;9.45;100.00
20368;BME280;10343;52.402;9.796;2022-09-28T06:19:24;98933.81;;;9.46;100.00
20368;BME280;10343;52.402;9.796;2022-09-28T06:22:06;98922.00;;;9.53;100.00
20368;BME280;10343;52.402;9.796;2022-09-28T06:24:43;98922.50;;;9.61;100.00
20368;BME280;10343;52.402;9.796;2022-09-28T06:27:10;98931.09;;;9.66;100.00
20368;BME280;10343;52.402;9.796;2022-09-28T06:29:38;98926.28;;;9.75;100.00
20368;BME280;10343;52.402;9.796;2022-09-28T06:32:06;98930.34;;;9.82;100.00
20368;BME280;10343;52.402;9.796;2022-09-28T06:34:36;98933.94;;;9.81;100.00
20368;BME280;10343;52.402;9.796;2022-09-28T06:37:05;98937.22;;;9.86;100.00
20368;BME280;10343;52.402;9.796;2022-09-28T06:39:34;98935.63;;;9.82;100.00
20368;BME280;10343;52.402;9.796;2022-09-28T06:42:02;98933.72;;;9.85;100.00
20368;BME280;10343;52.402;9.796;2022-09-28T06:44:56;98937.38;;;9.83;100.00
20368;BME280;10343;52.402;9.796;2022-09-28T06:47:41;98942.81;;;9.80;100.00
20368;BME280;10343;52.402;9.796;2022-09-28T06:50:16;98948.44;;;9.91;100.00
20368;BME280;10343;52.402;9.796;2022-09-28T06:52:53;98950.16;;;9.92;100.00
20368;BME280;10343;52.402;9.796;2022-09-28T06:55:31;98944.72;;;9.95;100.00
20368;BME280;10343;52.402;9.796;2022-09-28T06:58:03;98946.44;;;9.96;100.00
20368;BME280;10343;52.402;9.796;2022-09-28T07:00:33;98945.34;;;10.00;100.00
20368;BME280;10343;52.402;9.796;2022-09-28T07:03:02;98944.44;;;10.01;100.00
20368;BME280;10343;52.402;9.796;2022-09-28T07:06:10;98946.13;;;10.02;100.00
20368;BME280;10343;52.402;9.796;2022-09-28T07:09:03;98941.53;;;10.06;100.00
20368;BME280;10343;52.402;9.796;2022-09-28T07:12:18;98946.44;;;9.96;100.00
20368;BME280;10343;52.402;9.796;2022-09-28T07:14:52;98950.16;;;9.92;100.00
20368;BME280;10343;52.402;9.796;2022-09-28T07:17:25;98957.84;;;9.79;100.00
20368;BME280;10343;52.402;9.796;2022-09-28T07:19:55;98953.75;;;9.72;100.00
20368;BME280;10343;52.402;9.796;2022-09-28T07:22:28;98957.28;;;9.73;100.00
20368;BME280;10343;52.402;9.796;2022-09-28T07:25:13;98962.00;;;9.66;100.00
20368;BME280;10343;52.402;9.796;2022-09-28T07:28:01;98964.97;;;9.58;100.00
20368;BME280;10343;52.402;9.796;2022-09-28T07:30:52;98968.69;;;9.54;100.00
20368;BME280;10343;52.402;9.796;2022-09-28T07:33:43;98973.22;;;9.52;100.00
20368;BME280;10343;52.402;9.796;2022-09-28T07:36:18;98971.34;;;9.54;100.00
20368;BME280;10343;52.402;9.796;2022-09-28T07:38:49;98970.56;;;9.52;100.00
20368;BME280;10343;52.402;9.796;2022-09-28T07:41:18;98981.28;;;9.49;100.00
20368;BME280;10343;52.402;9.796;2022-09-28T07:43:58;98981.16;;;9.52;100.00
20368;BME280;10343;52.402;9.796;2022-09-28T07:46:33;98988.59;;;9.63;100.00
20368;BME280;10343;52.402;9.796;2022-09-28T07:49:09;98989.03;;;9.73;100.00
20368;BME280;10343;52.402;9.796;2022-09-28T07:52:07;98987.31;;;9.72;100.00
20368;BME280;10343;52.402;9.796;2022-09-28T07:54:45;98991.44;;;9.77;100.00
20368;BME280;10343;52.402;9.796;2022-09-28T07:57:43;99000.31;;;9.76;100.00
20368;BME280;10343;52.402;9.796;2022-09-28T08:00:30;99001.88;;;9.80;100.00
20368;BME280;10343;52.402;9.796;2022-09-28T08:03:01;99002.53;;;9.85;100.00
20368;BME280;10343;52.402;9.796;2022-09-28T08:05:31;99008.66;;;9.86;100.00
20368;BME280;10343;52.402;9.796;2022-09-28T08:08:01;99014.34;;;9.78;100.00
20368;BME280;10343;52.402;9.796;2022-09-28T08:10:29;99008.66;;;9.86;100.00
20368;BME280;10343;52.402;9.796;2022-09-28T08:12:59;99016.50;;;9.89;100.00
20368;BME280;10343;52.402;9.796;2022-09-28T08:15:50;99024.56;;;9.86;100.00
20368;BME280;10343;52.402;9.796;2022-09-28T08:18:31;99024.19;;;9.94;100.00
20368;BME280;10343;52.402;9.796;2022-09-28T08:21:00;99022.28;;;9.97;100.00
20368;BME280;10343;52.402;9.796;2022-09-28T08:24:01;99031.63;;;10.05;100.00
20368;BME280;10343;52.402;9.796;2022-09-28T08:26:28;99034.38;;;10.03;100.00
20368;BME280;10343;52.402;9.796;2022-09-28T08:28:58;99036.94;;;10.05;100.00
20368;BME280;10343;52.402;9.796;2022-09-28T08:31:46;99040.66;;;10.00;100.00
20368;BME280;10343;52.402;9.796;2022-09-28T08:34:32;99043.16;;;10.03;100.00
20368;BME280;10343;52.402;9.796;2022-09-28T08:37:23;99042.88;;;10.10;100.00
20368;BME280;10343;52.402;9.796;2022-09-28T08:40:14;99042.22;;;10.05;100.00
20368;BME280;10343;52.402;9.796;2022-09-28T08:43:18;99045.66;;;10.07;100.00
20368;BME280;10343;52.402;9.796;2022-09-28T08:46:11;99053.50;;;10.08;100.00
20368;BME280;10343;52.402;9.796;2022-09-28T08:49:09;99052.53;;;9.92;100.00
20368;BME280;10343;52.402;9.796;2022-09-28T08:52:13;99058.03;;;9.87;100.00
20368;BME280;10343;52.402;9.796;2022-09-28T08:55:04;99059.25;;;9.80;100.00
20368;BME280;10343;52.402;9.796;2022-09-28T08:57:43;99059.25;;;9.80;100.00
20368;BME280;10343;52.402;9.796;2022-09-28T09:00:18;99070.56;;;9.83;100.00
20368;BME280;10343;52.402;9.796;2022-09-28T09:02:49;99069.69;;;9.83;100.00
20368;BME280;10343;52.402;9.796;2022-09-28T09:05:20;99075.00;;;9.83;100.00
20368;BME280;10343;52.402;9.796;2022-09-28T09:08:17;99072.00;;;9.91;100.00
20368;BME280;10343;52.402;9.796;2022-09-28T09:10:52;99078.13;;;9.91;100.00
20368;BME280;10343;52.402;9.796;2022-09-28T09:13:56;99075.41;;;9.93;100.00
20368;BME280;10343;52.402;9.796;2022-09-28T09:16:32;99082.44;;;10.13;100.00
20368;BME280;10343;52.402;9.796;2022-09-28T09:19:51;99075.00;;;10.21;100.00
20368;BME280;10343;52.402;9.796;2022-09-28T09:22:37;99083.28;;;10.32;100.00
20368;BME280;10343;52.402;9.796;2022-09-28T09:25:16;99074.94;;;10.42;100.00
20368;BME280;10343;52.402;9.796;2022-09-28T09:28:12;99078.28;;;10.45;100.00
20368;BME280;10343;52.402;9.796;2022-09-28T09:30:51;99082.72;;;10.45;100.00
20368;BME280;10343;52.402;9.796;2022-09-28T09:33:41;99086.88;;;10.50;99.89
20368;BME280;10343;52.402;9.796;2022-09-28T09:36:48;99092.72;;;10.57;99.06
20368;BME280;10343;52.402;9.796;2022-09-28T09:39:45;99091.47;;;10.47;97.59
20368;BME280;10343;52.402;9.796;2022-09-28T09:42:59;99095.06;;;10.46;98.64
20368;BME280;10343;52.402;9.796;2022-09-28T09:45:55;99090.31;;;10.52;98.86
20368;BME280;10343;52.402;9.796;2022-09-28T09:48:38;99098.16;;;10.73;98.63
20368;BME280;10343;52.402;9.796;2022-09-28T09:51:14;99095.44;;;10.75;95.52
20368;BME280;10343;52.402;9.796;2022-09-28T09:53:48;99098.69;;;10.80;94.58
20368;BME280;10343;52.402;9.796;2022-09-28T09:56:26;99105.09;;;10.93;95.28
20368;BME280;10343;52.402;9.796;2022-09-28T09:59:14;99102.53;;;10.92;93.33
20368;BME280;10343;52.402;9.796;2022-09-28T10:02:20;99101.69;;;10.91;93.03
20368;BME280;10343;52.402;9.796;2022-09-28T10:04:58;99111.41;;;10.91;92.83
20368;BME280;10343;52.402;9.796;2022-09-28T10:07:38;99113.09;;;10.74;90.15
20368;BME280;10343;52.402;9.796;2022-09-28T10:10:16;99126.50;;;10.71;91.12
20368;BME280;10343;52.402;9.796;2022-09-28T10:12:48;99116.72;;;10.73;91.25
20368;BME280;10343;52.402;9.796;2022-09-28T10:15:22;99118.31;;;10.76;91.79
20368;BME280;10343;52.402;9.796;2022-09-28T10:18:19;99114.81;;;10.75;91.68
20368;BME280;10343;52.402;9.796;2022-09-28T10:21:10;99120.31;;;10.90;93.03
20368;BME280;10343;52.402;9.796;2022-09-28T10:23:53;99120.09;;;10.94;91.83
20368;BME280;10343;52.402;9.796;2022-09-28T10:26:26;99123.19;;;10.85;90.30
20368;BME280;10343;52.402;9.796;2022-09-28T10:28:58;99129.09;;;10.73;91.64
20368;BME280;10343;52.402;9.796;2022-09-28T10:31:36;99131.97;;;10.68;91.53
20368;BME280;10343;52.402;9.796;2022-09-28T10:34:16;99136.28;;;10.70;92.38
20368;BME280;10343;52.402;9.796;2022-09-28T10:36:48;99140.00;;;10.66;93.45
20368;BME280;10343;52.402;9.796;2022-09-28T10:39:36;99140.44;;;10.57;92.50
20368;BME280;10343;52.402;9.796;2022-09-28T10:42:08;99131.81;;;10.34;92.99
20368;BME280;10343;52.402;9.796;2022-09-28T10:44:49;99135.72;;;10.45;94.11
20368;BME280;10343;52.402;9.796;2022-09-28T10:47:35;99141.88;;;10.45;91.33
20368;BME280;10343;52.402;9.796;2022-09-28T10:50:17;99145.31;;;10.66;92.73
20368;BME280;10343;52.402;9.796;2022-09-28T10:52:48;99150.69;;;10.82;92.96
20368;BME280;10343;52.402;9.796;2022-09-28T10:55:39;99145.63;;;11.14;92.79
20368;BME280;10343;52.402;9.796;2022-09-28T10:58:25;99148.03;;;11.19;88.85
20368;BME280;10343;52.402;9.796;2022-09-28T11:00:59;99154.78;;;11.07;87.51
20368;BME280;10343;52.402;9.796;2022-09-28T11:03:30;99150.25;;;10.92;86.70
20368;BME280;10343;52.402;9.796;2022-09-28T11:06:05;99151.53;;;11.02;87.38
20368;BME280;10343;52.402;9.796;2022-09-28T11:08:37;99146.63;;;11.29;90.12
20368;BME280;10343;52.402;9.796;2022-09-28T11:11:10;99147.56;;;11.46;87.00
20368;BME280;10343;52.402;9.796;2022-09-28T11:13:42;99150.38;;;11.60;85.61
20368;BME280;10343;52.402;9.796;2022-09-28T11:16:23;99146.59;;;11.82;86.95
20368;BME280;10343;52.402;9.796;2022-09-28T11:18:53;99144.84;;;11.98;84.75
20368;BME280;10343;52.402;9.796;2022-09-28T11:21:23;99151.88;;;11.99;80.75
20368;BME280;10343;52.402;9.796;2022-09-28T11:23:59;99154.22;;;12.05;80.18
20368;BME280;10343;52.402;9.796;2022-09-28T11:26:36;99147.44;;;11.82;80.76
20368;BME280;10343;52.402;9.796;2022-09-28T11:29:18;99156.91;;;11.70;79.74
20368;BME280;10343;52.402;9.796;2022-09-28T11:31:59;99146.59;;;11.82;81.05
20368;BME280;10343;52.402;9.796;2022-09-28T11:34:34;99154.47;;;11.83;81.62
20368;BME280;10343;52.402;9.796;2022-09-28T11:37:46;99155.78;;;12.10;82.17
20368;BME280;10343;52.402;9.796;2022-09-28T11:40:44;99154.22;;;12.21;80.40
20368;BME280;10343;52.402;9.796;2022-09-28T11:43:22;99156.66;;;12.26;79.00
20368;BME280;10343;52.402;9.796;2022-09-28T11:46:02;99162.47;;;12.17;78.50
20368;BME280;10343;52.402;9.796;2022-09-28T11:48:41;99156.22;;;12.18;80.35
20368;BME280;10343;52.402;9.796;2022-09-28T11:51:15;99160.56;;;12.19;80.05
20368;BME280;10343;52.402;9.796;2022-09-28T11:53:49;99166.31;;;12.27;79.07
20368;BME280;10343;52.402;9.796;2022-09-28T11:56:29;99166.19;;;12.30;78.00
20368;BME280;10343;52.402;9.796;2022-09-28T11:58:59;99162.78;;;12.11;76.72
20368;BME280;10343;52.402;9.796;2022-09-28T12:01:43;99156.34;;;11.99;76.99
20368;BME280;10343;52.402;9.796;2022-09-28T12:04:25;99164.34;;;12.15;76.22
20368;BME280;10343;52.402;9.796;2022-09-28T12:07:02;99161.84;;;12.45;78.11
20368;BME280;10343;52.402;9.796;2022-09-28T12:09:33;99165.94;;;12.51;77.40
20368;BME280;10343;52.402;9.796;2022-09-28T12:12:23;99164.91;;;12.37;76.40
20368;BME280;10343;52.402;9.796;2022-09-28T12:14:56;99166.53;;;12.40;77.13
20368;BME280;10343;52.402;9.796;2022-09-28T12:17:33;99167.38;;;12.40;75.73
20368;BME280;10343;52.402;9.796;2022-09-28T12:20:11;99172.44;;;12.61;76.50
20368;BME280;10343;52.402;9.796;2022-09-28T12:22:45;99169.00;;;12.91;75.67
20368;BME280;10343;52.402;9.796;2022-09-28T12:25:18;99178.06;;;13.03;74.97
20368;BME280;10343;52.402;9.796;2022-09-28T12:27:50;99173.69;;;13.18;74.03
20368;BME280;10343;52.402;9.796;2022-09-28T12:30:21;99172.38;;;13.25;72.34
20368;BME280;10343;52.402;9.796;2022-09-28T12:32:55;99173.75;;;13.32;71.53
20368;BME280;10343;52.402;9.796;2022-09-28T12:35:33;99174.28;;;13.23;69.94
20368;BME280;10343;52.402;9.796;2022-09-28T12:38:26;99172.75;;;13.19;70.94
20368;BME280;10343;52.402;9.796;2022-09-28T12:41:01;99174.28;;;13.23;70.15
20368;BME280;10343;52.402;9.796;2022-09-28T12:43:42;99178.91;;;13.19;68.90
20368;BME280;10343;52.402;9.796;2022-09-28T12:46:21;99175.81;;;13.27;68.87
20368;BME280;10343;52.402;9.796;2022-09-28T12:49:04;99178.41;;;13.59;69.42
20368;BME280;10343;52.402;9.796;2022-09-28T12:51:56;99172.88;;;13.48;66.11
20368;BME280;10343;52.402;9.796;2022-09-28T12:54:46;99174.97;;;13.27;66.84
20368;BME280;10343;52.402;9.796;2022-09-28T12:57:32;99175.50;;;13.17;67.74
20368;BME280;10343;52.402;9.796;2022-09-28T13:00:04;99182.53;;;13.18;67.75
20368;BME280;10343;52.402;9.796;2022-09-28T13:06:16;99180.63;;;13.20;67.47
20368;BME280;10343;52.402;9.796;2022-09-28T13:08:57;99181.78;;;13.47;68.30
20368;BME280;10343;52.402;9.796;2022-09-28T13:11:32;99178.88;;;13.51;66.59
20368;BME280;10343;52.402;9.796;2022-09-28T13:17:03;99181.63;;;13.03;67.12
20368;BME280;10343;52.402;9.796;2022-09-28T13:19:39;99183.91;;;13.09;67.83
20368;BME280;10343;52.402;9.796;2022-09-28T13:22:23;99189.13;;;13.11;66.79
20368;BME280;10343;52.402;9.796;2022-09-28T13:24:55;99183.91;;;13.09;66.22
20368;BME280;10343;52.402;9.796;2022-09-28T13:27:31;99179.66;;;12.91;66.60
20368;BME280;10343;52.402;9.796;2022-09-28T13:30:03;99180.00;;;12.69;66.52
20368;BME280;10343;52.402;9.796;2022-09-28T13:32:35;99186.97;;;12.71;67.81
20368;BME280;10343;52.402;9.796;2022-09-28T13:35:05;99188.75;;;12.55;67.28
20368;BME280;10343;52.402;9.796;2022-09-28T13:37:34;99187.44;;;12.46;68.49
20368;BME280;10343;52.402;9.796;2022-09-28T13:40:02;99196.28;;;12.47;68.12
20368;BME280;10343;52.402;9.796;2022-09-28T13:42:45;99191.13;;;12.44;68.29
20368;BME280;10343;52.402;9.796;2022-09-28T13:45:30;99187.09;;;12.36;69.65
20368;BME280;10343;52.402;9.796;2022-09-28T13:48:13;99193.88;;;12.26;70.01
20368;BME280;10343;52.402;9.796;2022-09-28T13:50:56;99195.56;;;12.27;70.70
20368;BME280;10343;52.402;9.796;2022-09-28T13:53:39;99193.06;;;12.24;69.80
20368;BME280;10343;52.402;9.796;2022-09-28T13:56:21;99196.06;;;12.18;69.73
20368;BME280;10343;52.402;9.796;2022-09-28T13:58:53;99202.75;;;12.25;70.94